Argyle, Illinois
Current Conditions -  °F | °C
As of 7:54 AM on Saturday 25 Oct 2014 (Local Time) from KRFD Reporting Station
Moderate Fog Moderate Fog  
Wind Chill: 53°   Ceiling: 200
Heat Index: 53°   Visibility: 0.12mi
Dew Point: 52°   Wind: 3mph
Humidity: 96%   Direction: 260°W
Pressure: 29.96"   Gusts: NA
Location:  42.3911°N, 88.9094°W
Report Text: KRFD 251254Z 26003KT 1/8SM R01/0800V1200FT FG VV002 12/11 A2996 RMK AO2 SFC VIS 1/4 SLP147 T01170111
Loading
Personal Weather Stations






























Interactive Weather Map
Tropical Storm Tracking
New forecast layout! Learn more

10-Day Weather Forecast

Advertisements
Track Severe Weather on mobile